Latest Coastal Weather Observations for Low Head

IDV60701

Issued at 5:52 pm EST Monday 18 June 2018 (issued every 10 minutes, with the page automatically refreshed every 10 minutes)

About coastal observations | Map of coastal stations | Coastal observations for VIC | Marine services | Other Formats
Station Details ID: 091293 Name: LOW HEAD Lat: -41.05 Lon: 146.79 Height: 3.0 m
Data from the previous 72 hours. | See also: Recent months at Low Head
Date/Time
EST
Temp
°C
Wind Pressure Rain since
9am
mm
Weather Cloud Vis
km
Sea
Height
m
Swell
Dir  Spd
kts
Gust
kts
hPa Trend Height
m
Period
s
Dir
18/05:30pm 10.0 SSE 4 8 1026.7 - 0.0 - - - - - - -
18/05:00pm 11.2 SW 6 8 1026.3 - 0.0 - - - - - - -
18/04:30pm 11.6 SSW 7 8 1026.2 - 0.0 - - - - - - -
18/04:00pm 11.7 SSE 6 10 1026.0 - 0.0 - - - - - - -
18/03:30pm 11.9 SE 7 10 1025.7 - 0.0 - - - - - - -
18/03:00pm 12.2 SSE 9 12 1025.6 - 0.0 - - - - - - -
18/02:30pm 12.1 SSE 10 13 1025.5 - 0.0 - - - - - - -
18/02:00pm 11.7 S 14 18 1025.3 - 0.0 - - - - - - -
18/01:30pm 11.7 S 14 18 1025.2 - 0.0 - - - - - - -
18/01:00pm 11.5 S 15 19 1025.5 - 0.0 - - - - - - -
18/12:30pm 11.1 S 17 19 1025.6 - 0.0 - - - - - - -
18/12:00pm 10.6 S 11 14 1025.8 - 0.0 - - - - - - -
18/11:30am 10.2 S 12 16 1025.7 - 0.0 - - - - - - -
18/11:00am 9.6 S 14 18 1026.0 - 0.0 - - - - - - -
18/10:30am 9.2 S 18 21 1025.9 - 0.0 - - - - - - -
18/10:00am 9.0 S 25 27 1025.4 - 0.0 - - - - - - -
18/09:30am 8.6 S 25 32 1024.6 - 0.0 - - - - - - -
18/09:00am 8.3 S 20 29 1024.4 - 0.0 - - - - - - -
18/08:49am 8.1 S 13 22 1024.6 - 0.0 - - - - - - -
18/08:30am 7.4 SE 6 11 1024.9 - 0.0 - - - - - - -
18/08:00am 7.2 SSE 16 21 1024.4 - 0.0 - - - - - - -
18/07:30am 6.9 SSE 11 19 1023.5 - 0.0 - - - - - - -
18/07:00am 7.0 SSE 12 17 1023.3 - 0.0 - - - - - - -
18/06:30am 7.4 S 16 21 1023.0 - 0.0 - - - - - - -
18/06:00am 7.6 S 13 19 1022.9 - 0.0 - - - - - - -
18/05:30am 6.9 SSW 11 12 1022.8 - 0.0 - - - - - - -
18/05:00am 6.6 S 9 12 1022.8 - 0.0 - - - - - - -
18/04:30am 6.2 SSE 8 11 1022.6 - 0.0 - - - - - - -
18/04:00am 6.4 SSE 9 12 1022.6 - 0.0 - - - - - - -
18/03:30am 6.7 SSE 8 9 1022.4 - 0.0 - - - - - - -
18/03:00am 6.6 SE 8 9 1022.1 - 0.0 - - - - - - -
18/02:30am 7.1 SSE 5 6 1021.7 - 0.0 - - - - - - -
18/02:00am 7.8 S 8 11 1021.5 - 0.0 - - - - - - -
18/01:30am 8.8 S 12 15 1021.1 - 0.0 - - - - - - -
18/01:00am 9.0 SSW 15 17 1021.0 - 0.0 - - - - - - -
18/12:30am 9.3 S 14 17 1020.6 - 0.0 - - - - - - -
18/12:00am 9.5 S 12 15 1020.7 - 0.0 - - - - - - -
 
Date/Time
EST
Temp
°C
Wind Pressure Rain since
9am
mm
Weather Cloud Vis
km
Sea
Height
m
Swell
Dir  Spd
kts
Gust
kts
hPa Trend Height
m
Period
s
Dir
17/11:30pm 9.7 S 14 18 1020.4 - 0.0 - - - - - - -
17/11:00pm 9.6 SSW 10 11 1020.1 - 0.0 - - - - - - -
17/10:30pm 9.6 SSW 10 11 1019.9 - 0.0 - - - - - - -
17/10:00pm 9.6 SSW 11 13 1019.6 - 0.0 - - - - - - -
17/09:30pm 10.0 SSW 12 13 1019.2 - 0.0 - - - - - - -
17/09:00pm 10.0 SSW 12 14 1019.0 - 0.0 - - - - - - -
17/08:30pm 10.0 SSW 10 12 1018.7 - 0.0 - - - - - - -
17/08:00pm 10.5 SSW 9 11 1018.2 - 0.0 - - - - - - -
17/07:30pm 10.5 S 7 9 1017.7 - 0.0 - - - - - - -
17/07:00pm 10.3 SW 6 7 1017.3 - 0.0 - - - - - - -
17/06:30pm 10.9 SSW 10 12 1016.8 - 0.0 - - - - - - -
17/06:00pm 11.0 SSW 9 13 1016.2 - 0.0 - - - - - - -
17/05:30pm 9.7 SSE 5 7 1015.6 - 0.0 - - - - - - -
17/05:00pm 10.0 SSE 8 11 1015.1 - 0.0 - - - - - - -
17/04:30pm 10.7 SE 10 14 1014.7 - 0.0 - - - - - - -
17/04:00pm 11.3 SE 10 15 1014.4 - 0.0 - - - - - - -
17/03:30pm 12.0 SE 11 16 1013.7 - 0.0 - - - - - - -
17/03:00pm 12.4 SE 11 16 1013.3 - 0.0 - - - - - - -
17/02:30pm 13.3 SSE 16 23 1012.6 - 0.0 - - - - - - -
17/02:00pm 13.1 SSE 17 21 1012.4 - 0.0 - - - - - - -
17/01:30pm 13.3 S 12 16 1012.0 - 0.0 - - - - - - -
17/01:00pm 12.8 SSW 17 23 1011.3 - 0.0 - - - - - - -
17/12:30pm 12.3 SSW 15 18 1011.3 - 0.0 - - - - - - -
17/12:00pm 12.1 S 15 19 1011.6 - 0.0 - - - - - - -
17/11:30am 11.6 S 11 16 1011.3 - 0.0 - - - - - - -
17/11:00am 11.1 SSE 12 19 1011.3 - 0.0 - - - - - - -
17/10:30am 10.8 S 18 23 1010.3 - 0.0 - - - - - - -
17/10:00am 10.6 SSE 18 27 1009.7 - 0.0 - - - - - - -
17/09:56am 10.6 SSE 20 30 1009.6 - 0.0 - - - - - - -
17/09:30am 10.4 SSE 19 26 1009.3 - 0.0 - - - - - - -
17/09:00am 9.9 S 22 27 1008.5 - 0.0 - - - - - - -
17/08:30am 9.5 S 22 28 1007.6 - 0.0 - - - - - - -
17/08:16am 9.3 SSE 17 27 1007.9 - 0.0 - - - - - - -
17/08:00am 8.8 SSE 14 17 1007.5 - 0.0 - - - - - - -
17/07:30am 8.6 SSE 11 15 1006.9 - 0.0 - - - - - - -
17/07:16am 8.8 SSE 13 17 1006.6 - 0.0 - - - - - - -
17/07:00am 7.6 SSE 5 7 1006.5 - 0.0 - - - - - - -
17/06:30am 7.8 ESE 5 7 1005.8 - 0.0 - - - - - - -
17/06:00am 8.7 S 11 12 1005.3 - 0.0 - - - - - - -
17/05:30am 9.0 S 12 15 1004.5 - 0.0 - - - - - - -
17/05:00am 9.0 S 13 16 1004.1 - 0.0 - - - - - - -
17/04:30am 8.5 S 9 11 1003.9 - 0.0 - - - - - - -
17/04:00am 8.1 SE 8 11 1003.6 - 0.0 - - - - - - -
17/03:30am 8.8 SSE 9 15 1003.1 - 0.0 - - - - - - -
17/03:00am 8.1 S 10 11 1002.8 - 0.0 - - - - - - -
17/02:30am 8.1 SSE 6 8 1002.8 - 0.0 - - - - - - -
17/02:00am 8.3 SSE 8 10 1002.5 - 0.0 - - - - - - -
17/01:30am 9.4 SSW 6 7 1001.7 - 0.0 - - - - - - -
17/01:00am 10.7 WSW 11 12 1001.5 - 0.0 - - - - - - -
17/12:30am 10.6 WSW 12 15 1001.1 - 0.0 - - - - - - -
17/12:00am 10.7 SW 12 14 1001.0 - 0.0 - - - - - - -
 
Date/Time
EST
Temp
°C
Wind Pressure Rain since
9am
mm
Weather Cloud Vis
km
Sea
Height
m
Swell
Dir  Spd
kts
Gust
kts
hPa Trend Height
m
Period
s
Dir
16/11:30pm 11.2 WSW 15 18 1000.7 - 0.0 - - - - - - -
16/11:00pm 11.3 WSW 16 18 1000.3 - 0.0 - - - - - - -
16/10:30pm 11.3 WSW 17 20 1000.4 - 0.0 - - - - - - -
16/10:00pm 11.4 W 20 23 1000.3 - 0.0 - - - - - - -
16/09:30pm 10.7 WSW 12 16 1000.4 - 0.0 - - - - - - -
16/09:00pm 10.6 WSW 18 22 1000.1 - 0.0 - - - - - - -
16/08:30pm 11.1 WSW 22 26 1000.1 - 0.0 - - - - - - -
16/08:00pm 11.4 W 28 33 999.8 - 0.0 - - - - - - -
16/07:30pm 11.3 W 29 33 999.5 - 0.0 - - - - - - -
16/07:00pm 11.1 W 25 28 999.6 - 0.0 - - - - - - -
16/06:30pm 11.2 W 25 29 1000.1 - 0.0 - - - - - - -
16/06:00pm 11.3 W 26 29 1000.1 - 0.0 - - - - - - -
16/05:30pm 11.3 W 24 29 1000.1 - 0.0 - - - - - - -
16/05:00pm 11.2 W 25 28 1000.0 - 0.0 - - - - - - -
16/04:30pm 11.6 W 27 32 1000.1 - 0.0 - - - - - - -
16/04:00pm 12.0 W 24 29 1000.2 - 0.0 - - - - - - -
16/03:30pm 12.0 W 25 30 1000.1 - 0.0 - - - - - - -
16/03:00pm 12.0 W 25 30 1000.1 - 0.0 - - - - - - -
16/02:30pm 12.0 W 25 29 1000.1 - 0.0 - - - - - - -
16/02:00pm 11.9 W 24 29 1000.3 - 0.0 - - - - - - -
16/01:30pm 12.4 W 23 27 1000.5 - 0.0 - - - - - - -
16/01:00pm 12.5 WNW 22 28 1000.7 - 0.0 - - - - - - -
16/12:30pm 12.3 WNW 25 28 1000.9 - 0.0 - - - - - - -
16/12:00pm 11.6 WNW 23 29 1000.9 - 0.0 - - - - - - -
16/11:30am 11.6 WNW 25 28 1001.0 - 0.0 - - - - - - -
16/11:00am 11.5 WNW 25 29 1001.3 - 0.0 - - - - - - -
16/10:30am 11.1 W 26 31 1001.2 - 0.0 - - - - - - -
16/10:00am 11.2 W 23 28 1001.3 - 0.0 - - - - - - -
16/09:30am 10.9 W 24 28 1001.3 - 0.0 - - - - - - -
16/09:00am 10.8 W 25 29 1001.2 - 0.0 - - - - - - -
16/08:30am 10.5 W 24 29 1000.9 - 0.0 - - - - - - -
16/08:00am 10.5 W 25 30 1000.7 - 0.0 - - - - - - -
16/07:30am 10.4 W 22 26 1000.6 - 0.0 - - - - - - -
16/07:00am 10.4 W 24 28 1000.3 - 0.0 - - - - - - -
16/06:30am 10.7 W 23 28 1000.0 - 0.0 - - - - - - -
16/06:00am 10.5 W 25 31 999.6 - 0.0 - - - - - - -
16/05:30am 10.5 W 25 30 999.3 - 0.0 - - - - - - -
16/05:00am 10.1 W 25 30 999.3 - 0.0 - - - - - - -
16/04:30am 10.0 W 24 28 999.5 - 0.0 - - - - - - -
16/04:00am 10.1 W 26 31 999.5 - 0.0 - - - - - - -
16/03:30am 10.1 W 24 30 999.4 - 0.0 - - - - - - -
16/03:00am 10.4 W 26 33 999.6 - 0.0 - - - - - - -
16/02:30am 10.8 W 25 29 999.9 - 0.0 - - - - - - -
16/02:00am 10.8 W 26 31 999.9 - 0.0 - - - - - - -
16/01:30am 10.9 W 25 30 999.9 - 0.0 - - - - - - -
16/01:00am 10.9 WNW 24 27 1000.1 - 0.0 - - - - - - -
16/12:30am 10.6 WNW 23 27 1000.1 - 0.0 - - - - - - -
16/12:00am 10.3 W 22 27 1000.4 - 0.0 - - - - - - -
 
Date/Time
EST
Temp
°C
Wind Pressure Rain since
9am
mm
Weather Cloud Vis
km
Sea
Height
m
Swell
Dir  Spd
kts
Gust
kts
hPa Trend Height
m
Period
s
Dir
15/11:30pm 10.4 WNW 24 29 1000.5 - 0.0 - - - - - - -
15/11:00pm 10.3 WNW 25 29 1000.5 - 0.0 - - - - - - -
15/10:30pm 10.3 W 18 23 1000.4 - 0.0 - - - - - - -
15/10:00pm 10.4 WNW 24 29 1000.2 - 0.0 - - - - - - -
15/09:30pm 10.9 W 24 28 1000.6 - 0.0 - - - - - - -
15/09:00pm 11.1 WNW 24 28 1000.7 - 0.0 - - - - - - -
15/08:30pm 10.9 W 23 27 1001.0 - 0.0 - - - - - - -
15/08:00pm 10.8 WNW 22 28 1000.9 - 0.0 - - - - - - -
15/07:30pm 10.7 WNW 20 23 1000.9 - 0.0 - - - - - - -
15/07:00pm 10.7 WNW 22 26 1000.7 - 0.0 - - - - - - -
15/06:30pm 10.7 WNW 22 27 1000.8 - 0.0 - - - - - - -
15/06:00pm 11.2 WNW 25 30 1000.6 - 0.0 - - - - - - -

Other Formats:

Comma delimited format used in spreadsheet applications
http://www.bom.gov.au/fwo/IDV60701/IDV60701.95964.axf

JavaScript Object Notation format (JSON) in row-major order
http://www.bom.gov.au/fwo/IDV60701/IDV60701.95964.json